sensor_id;sensor_type;location;lat;lon;timestamp;temperature;humidity
67901;DHT22;54700;51.796;10.956;2023-02-13T00:01:54;6.30;99.90
67901;DHT22;54700;51.796;10.956;2023-02-13T00:04:21;6.30;99.90
67901;DHT22;54700;51.796;10.956;2023-02-13T00:06:47;6.30;99.90
67901;DHT22;54700;51.796;10.956;2023-02-13T00:09:14;6.30;99.90
67901;DHT22;54700;51.796;10.956;2023-02-13T00:11:42;6.20;99.90
67901;DHT22;54700;51.796;10.956;2023-02-13T00:14:09;6.30;99.90
67901;DHT22;54700;51.796;10.956;2023-02-13T00:16:35;6.30;99.90
67901;DHT22;54700;51.796;10.956;2023-02-13T00:19:02;6.30;99.90
67901;DHT22;54700;51.796;10.956;2023-02-13T00:21:29;6.20;99.90
67901;DHT22;54700;51.796;10.956;2023-02-13T00:23:56;6.20;99.90
67901;DHT22;54700;51.796;10.956;2023-02-13T00:26:23;6.30;99.90
67901;DHT22;54700;51.796;10.956;2023-02-13T00:28:51;6.30;99.90
67901;DHT22;54700;51.796;10.956;2023-02-13T00:31:18;6.20;99.90
67901;DHT22;54700;51.796;10.956;2023-02-13T00:33:46;6.20;99.90
67901;DHT22;54700;51.796;10.956;2023-02-13T00:36:14;6.20;99.90
67901;DHT22;54700;51.796;10.956;2023-02-13T00:38:44;6.20;99.90
67901;DHT22;54700;51.796;10.956;2023-02-13T00:41:11;6.20;99.90
67901;DHT22;54700;51.796;10.956;2023-02-13T00:43:39;6.20;99.90
67901;DHT22;54700;51.796;10.956;2023-02-13T00:46:07;6.20;99.90
67901;DHT22;54700;51.796;10.956;2023-02-13T00:48:34;6.20;99.90
67901;DHT22;54700;51.796;10.956;2023-02-13T00:51:01;6.20;99.90
67901;DHT22;54700;51.796;10.956;2023-02-13T00:53:29;6.20;99.90
67901;DHT22;54700;51.796;10.956;2023-02-13T00:55:56;6.20;99.90
67901;DHT22;54700;51.796;10.956;2023-02-13T00:58:23;6.20;99.90
67901;DHT22;54700;51.796;10.956;2023-02-13T01:00:50;6.20;99.90
67901;DHT22;54700;51.796;10.956;2023-02-13T01:03:19;6.10;99.90
67901;DHT22;54700;51.796;10.956;2023-02-13T01:05:47;6.10;99.90
67901;DHT22;54700;51.796;10.956;2023-02-13T01:08:15;6.20;99.90
67901;DHT22;54700;51.796;10.956;2023-02-13T01:10:43;6.20;99.90
67901;DHT22;54700;51.796;10.956;2023-02-13T01:13:11;6.10;99.90
67901;DHT22;54700;51.796;10.956;2023-02-13T01:15:38;6.10;99.90
67901;DHT22;54700;51.796;10.956;2023-02-13T01:18:05;6.10;99.90
67901;DHT22;54700;51.796;10.956;2023-02-13T01:20:33;6.10;99.90
67901;DHT22;54700;51.796;10.956;2023-02-13T01:23:00;6.10;99.90
67901;DHT22;54700;51.796;10.956;2023-02-13T01:25:27;6.10;99.90
67901;DHT22;54700;51.796;10.956;2023-02-13T01:27:54;6.10;99.90
67901;DHT22;54700;51.796;10.956;2023-02-13T01:30:20;6.10;99.90
67901;DHT22;54700;51.796;10.956;2023-02-13T01:32:47;6.10;99.90
67901;DHT22;54700;51.796;10.956;2023-02-13T01:35:14;6.10;99.90
67901;DHT22;54700;51.796;10.956;2023-02-13T01:37:42;6.10;99.90
67901;DHT22;54700;51.796;10.956;2023-02-13T01:40:10;6.10;99.90
67901;DHT22;54700;51.796;10.956;2023-02-13T01:42:41;6.10;99.90
67901;DHT22;54700;51.796;10.956;2023-02-13T01:45:18;6.10;99.90
67901;DHT22;54700;51.796;10.956;2023-02-13T01:47:49;6.10;99.90
67901;DHT22;54700;51.796;10.956;2023-02-13T01:50:20;6.10;99.90
67901;DHT22;54700;51.796;10.956;2023-02-13T01:52:51;6.10;99.90
67901;DHT22;54700;51.796;10.956;2023-02-13T01:55:22;6.10;99.90
67901;DHT22;54700;51.796;10.956;2023-02-13T01:57:51;6.10;99.90
67901;DHT22;54700;51.796;10.956;2023-02-13T02:00:27;6.10;99.90
67901;DHT22;54700;51.796;10.956;2023-02-13T02:02:54;6.10;99.90
67901;DHT22;54700;51.796;10.956;2023-02-13T02:05:26;6.10;99.90
67901;DHT22;54700;51.796;10.956;2023-02-13T02:07:57;6.00;99.90
67901;DHT22;54700;51.796;10.956;2023-02-13T02:10:26;6.00;99.90
67901;DHT22;54700;51.796;10.956;2023-02-13T02:13:10;6.00;99.90
67901;DHT22;54700;51.796;10.956;2023-02-13T02:15:38;6.00;99.90
67901;DHT22;54700;51.796;10.956;2023-02-13T02:18:09;6.00;99.90
67901;DHT22;54700;51.796;10.956;2023-02-13T02:20:44;6.00;99.90
67901;DHT22;54700;51.796;10.956;2023-02-13T02:23:36;6.00;99.90
67901;DHT22;54700;51.796;10.956;2023-02-13T02:29:36;6.00;99.90
67901;DHT22;54700;51.796;10.956;2023-02-13T02:32:29;5.90;99.90
67901;DHT22;54700;51.796;10.956;2023-02-13T02:35:17;5.90;99.90
67901;DHT22;54700;51.796;10.956;2023-02-13T02:37:57;5.90;99.90
67901;DHT22;54700;51.796;10.956;2023-02-13T02:40:34;5.90;99.90
67901;DHT22;54700;51.796;10.956;2023-02-13T02:43:12;5.90;99.90
67901;DHT22;54700;51.796;10.956;2023-02-13T02:45:49;5.90;99.90
67901;DHT22;54700;51.796;10.956;2023-02-13T02:48:23;5.90;99.90
67901;DHT22;54700;51.796;10.956;2023-02-13T02:51:16;5.80;99.90
67901;DHT22;54700;51.796;10.956;2023-02-13T02:53:50;5.90;99.90
67901;DHT22;54700;51.796;10.956;2023-02-13T02:56:24;5.90;99.90
67901;DHT22;54700;51.796;10.956;2023-02-13T02:58:58;5.90;99.90
67901;DHT22;54700;51.796;10.956;2023-02-13T03:01:47;5.90;99.90
67901;DHT22;54700;51.796;10.956;2023-02-13T03:04:35;5.90;99.90
67901;DHT22;54700;51.796;10.956;2023-02-13T03:07:23;5.90;99.90
67901;DHT22;54700;51.796;10.956;2023-02-13T03:09:56;5.90;99.90
67901;DHT22;54700;51.796;10.956;2023-02-13T03:12:44;5.90;99.90
67901;DHT22;54700;51.796;10.956;2023-02-13T03:15:33;5.90;99.90
67901;DHT22;54700;51.796;10.956;2023-02-13T03:18:26;5.90;99.90
67901;DHT22;54700;51.796;10.956;2023-02-13T03:21:15;5.80;99.90
67901;DHT22;54700;51.796;10.956;2023-02-13T03:24:19;5.80;99.90
67901;DHT22;54700;51.796;10.956;2023-02-13T03:26:52;5.90;99.90
67901;DHT22;54700;51.796;10.956;2023-02-13T03:29:28;5.90;99.90
67901;DHT22;54700;51.796;10.956;2023-02-13T03:32:25;5.80;99.90
67901;DHT22;54700;51.796;10.956;2023-02-13T03:35:02;5.80;99.90
67901;DHT22;54700;51.796;10.956;2023-02-13T03:37:56;5.80;99.90
67901;DHT22;54700;51.796;10.956;2023-02-13T03:40:34;5.80;99.90
67901;DHT22;54700;51.796;10.956;2023-02-13T03:43:25;5.80;99.90
67901;DHT22;54700;51.796;10.956;2023-02-13T03:45:57;5.70;99.90
67901;DHT22;54700;51.796;10.956;2023-02-13T03:48:29;5.70;99.90
67901;DHT22;54700;51.796;10.956;2023-02-13T03:51:18;5.70;99.90
67901;DHT22;54700;51.796;10.956;2023-02-13T03:53:52;5.70;99.90
67901;DHT22;54700;51.796;10.956;2023-02-13T03:56:21;5.70;99.90
67901;DHT22;54700;51.796;10.956;2023-02-13T03:59:08;5.70;99.90
67901;DHT22;54700;51.796;10.956;2023-02-13T04:01:47;5.70;99.90
67901;DHT22;54700;51.796;10.956;2023-02-13T04:04:21;5.70;99.90
67901;DHT22;54700;51.796;10.956;2023-02-13T04:06:53;5.70;99.90
67901;DHT22;54700;51.796;10.956;2023-02-13T04:09:25;5.70;99.90
67901;DHT22;54700;51.796;10.956;2023-02-13T04:11:55;5.70;99.90
67901;DHT22;54700;51.796;10.956;2023-02-13T04:14:26;5.70;99.90
67901;DHT22;54700;51.796;10.956;2023-02-13T04:17:01;5.70;99.90
67901;DHT22;54700;51.796;10.956;2023-02-13T04:19:30;5.70;99.90
67901;DHT22;54700;51.796;10.956;2023-02-13T04:21:58;5.70;99.90
67901;DHT22;54700;51.796;10.956;2023-02-13T04:24:28;5.70;99.90
67901;DHT22;54700;51.796;10.956;2023-02-13T04:26:55;5.70;99.90
67901;DHT22;54700;51.796;10.956;2023-02-13T04:29:22;5.70;99.90
67901;DHT22;54700;51.796;10.956;2023-02-13T04:31:50;5.70;99.90
67901;DHT22;54700;51.796;10.956;2023-02-13T04:34:17;5.70;99.90
67901;DHT22;54700;51.796;10.956;2023-02-13T04:36:43;5.70;99.90
67901;DHT22;54700;51.796;10.956;2023-02-13T04:39:13;5.60;99.90
67901;DHT22;54700;51.796;10.956;2023-02-13T04:41:41;5.70;99.90
67901;DHT22;54700;51.796;10.956;2023-02-13T04:44:07;5.60;99.90
67901;DHT22;54700;51.796;10.956;2023-02-13T04:46:34;5.70;99.90
67901;DHT22;54700;51.796;10.956;2023-02-13T04:49:01;5.70;99.90
67901;DHT22;54700;51.796;10.956;2023-02-13T04:51:28;5.70;99.90
67901;DHT22;54700;51.796;10.956;2023-02-13T04:53:54;5.70;99.90
67901;DHT22;54700;51.796;10.956;2023-02-13T04:56:21;5.70;99.90
67901;DHT22;54700;51.796;10.956;2023-02-13T04:58:49;5.70;99.90
67901;DHT22;54700;51.796;10.956;2023-02-13T05:01:16;5.60;99.90
67901;DHT22;54700;51.796;10.956;2023-02-13T05:03:43;5.70;99.90
67901;DHT22;54700;51.796;10.956;2023-02-13T05:06:10;5.60;99.90
67901;DHT22;54700;51.796;10.956;2023-02-13T05:08:37;5.60;99.90
67901;DHT22;54700;51.796;10.956;2023-02-13T05:11:04;5.60;99.90
67901;DHT22;54700;51.796;10.956;2023-02-13T05:13:31;5.60;99.90
67901;DHT22;54700;51.796;10.956;2023-02-13T05:15:59;5.70;99.90
67901;DHT22;54700;51.796;10.956;2023-02-13T05:18:28;5.70;99.90
67901;DHT22;54700;51.796;10.956;2023-02-13T05:20:55;5.70;99.90
67901;DHT22;54700;51.796;10.956;2023-02-13T05:23:39;5.60;99.90
67901;DHT22;54700;51.796;10.956;2023-02-13T05:26:06;5.70;99.90
67901;DHT22;54700;51.796;10.956;2023-02-13T05:28:33;5.70;99.90
67901;DHT22;54700;51.796;10.956;2023-02-13T05:31:23;5.60;99.90
67901;DHT22;54700;51.796;10.956;2023-02-13T05:33:50;5.60;99.90
67901;DHT22;54700;51.796;10.956;2023-02-13T05:36:16;5.60;99.90
67901;DHT22;54700;51.796;10.956;2023-02-13T05:38:43;5.60;99.90
67901;DHT22;54700;51.796;10.956;2023-02-13T05:41:10;5.60;99.90
67901;DHT22;54700;51.796;10.956;2023-02-13T05:43:37;5.60;99.90
67901;DHT22;54700;51.796;10.956;2023-02-13T05:46:05;5.70;99.90
67901;DHT22;54700;51.796;10.956;2023-02-13T05:48:34;5.70;99.90
67901;DHT22;54700;51.796;10.956;2023-02-13T05:51:03;5.60;99.90
67901;DHT22;54700;51.796;10.956;2023-02-13T05:53:34;5.60;99.90
67901;DHT22;54700;51.796;10.956;2023-02-13T05:56:01;5.60;99.90
67901;DHT22;54700;51.796;10.956;2023-02-13T05:58:32;5.60;99.90
67901;DHT22;54700;51.796;10.956;2023-02-13T06:00:59;5.60;99.90
67901;DHT22;54700;51.796;10.956;2023-02-13T06:03:27;5.60;99.90
67901;DHT22;54700;51.796;10.956;2023-02-13T06:05:57;5.60;99.90
67901;DHT22;54700;51.796;10.956;2023-02-13T06:08:25;5.70;99.90
67901;DHT22;54700;51.796;10.956;2023-02-13T06:10:55;5.70;99.90
67901;DHT22;54700;51.796;10.956;2023-02-13T06:13:22;5.70;99.90
67901;DHT22;54700;51.796;10.956;2023-02-13T06:15:58;5.60;99.90
67901;DHT22;54700;51.796;10.956;2023-02-13T06:18:25;5.60;99.90
67901;DHT22;54700;51.796;10.956;2023-02-13T06:20:52;5.60;99.90
67901;DHT22;54700;51.796;10.956;2023-02-13T06:23:21;5.60;99.90
67901;DHT22;54700;51.796;10.956;2023-02-13T06:25:49;5.60;99.90
67901;DHT22;54700;51.796;10.956;2023-02-13T06:28:16;5.60;99.90
67901;DHT22;54700;51.796;10.956;2023-02-13T06:30:46;5.70;99.90
67901;DHT22;54700;51.796;10.956;2023-02-13T06:33:13;5.60;99.90
67901;DHT22;54700;51.796;10.956;2023-02-13T06:35:40;5.70;99.90
67901;DHT22;54700;51.796;10.956;2023-02-13T06:38:06;5.70;99.90
67901;DHT22;54700;51.796;10.956;2023-02-13T06:40:34;5.70;99.90
67901;DHT22;54700;51.796;10.956;2023-02-13T06:43:01;5.70;99.90
67901;DHT22;54700;51.796;10.956;2023-02-13T06:45:28;5.80;99.90
67901;DHT22;54700;51.796;10.956;2023-02-13T06:47:55;5.80;99.90
67901;DHT22;54700;51.796;10.956;2023-02-13T06:50:22;5.80;99.90
67901;DHT22;54700;51.796;10.956;2023-02-13T06:52:49;5.90;99.90
67901;DHT22;54700;51.796;10.956;2023-02-13T06:55:17;5.90;99.90
67901;DHT22;54700;51.796;10.956;2023-02-13T06:57:49;5.90;99.90
67901;DHT22;54700;51.796;10.956;2023-02-13T07:00:16;5.90;99.90
67901;DHT22;54700;51.796;10.956;2023-02-13T07:02:48;5.90;99.90
67901;DHT22;54700;51.796;10.956;2023-02-13T07:05:15;6.00;99.90
67901;DHT22;54700;51.796;10.956;2023-02-13T07:07:44;6.00;99.90
67901;DHT22;54700;51.796;10.956;2023-02-13T07:10:12;6.00;99.90
67901;DHT22;54700;51.796;10.956;2023-02-13T07:12:40;6.00;99.90
67901;DHT22;54700;51.796;10.956;2023-02-13T07:15:10;6.10;99.90
67901;DHT22;54700;51.796;10.956;2023-02-13T07:17:37;6.10;99.90
67901;DHT22;54700;51.796;10.956;2023-02-13T07:20:05;6.10;99.80
67901;DHT22;54700;51.796;10.956;2023-02-13T07:22:33;6.10;99.80
67901;DHT22;54700;51.796;10.956;2023-02-13T07:25:00;6.10;99.30
67901;DHT22;54700;51.796;10.956;2023-02-13T07:27:27;6.20;99.50
67901;DHT22;54700;51.796;10.956;2023-02-13T07:29:54;6.20;99.30
67901;DHT22;54700;51.796;10.956;2023-02-13T07:32:29;6.20;99.20
67901;DHT22;54700;51.796;10.956;2023-02-13T07:34:55;6.20;99.00
67901;DHT22;54700;51.796;10.956;2023-02-13T07:37:22;6.30;99.20
67901;DHT22;54700;51.796;10.956;2023-02-13T07:39:49;6.30;99.00
67901;DHT22;54700;51.796;10.956;2023-02-13T07:42:16;6.30;98.80
67901;DHT22;54700;51.796;10.956;2023-02-13T07:44:43;6.40;98.60
67901;DHT22;54700;51.796;10.956;2023-02-13T07:47:12;6.40;98.70
67901;DHT22;54700;51.796;10.956;2023-02-13T07:49:40;6.40;98.80
67901;DHT22;54700;51.796;10.956;2023-02-13T07:52:08;6.40;98.70
67901;DHT22;54700;51.796;10.956;2023-02-13T07:54:35;6.40;98.60
67901;DHT22;54700;51.796;10.956;2023-02-13T07:57:11;6.40;98.60
67901;DHT22;54700;51.796;10.956;2023-02-13T07:59:38;6.50;98.20
67901;DHT22;54700;51.796;10.956;2023-02-13T08:02:07;6.50;98.20
67901;DHT22;54700;51.796;10.956;2023-02-13T08:04:37;6.50;98.00
67901;DHT22;54700;51.796;10.956;2023-02-13T08:07:06;6.50;98.30
67901;DHT22;54700;51.796;10.956;2023-02-13T08:09:33;6.50;98.30
67901;DHT22;54700;51.796;10.956;2023-02-13T08:12:17;6.50;98.50
67901;DHT22;54700;51.796;10.956;2023-02-13T08:14:44;6.50;98.70
67901;DHT22;54700;51.796;10.956;2023-02-13T08:17:11;6.60;99.00
67901;DHT22;54700;51.796;10.956;2023-02-13T08:19:40;6.60;99.20
67901;DHT22;54700;51.796;10.956;2023-02-13T08:22:08;6.60;99.30
67901;DHT22;54700;51.796;10.956;2023-02-13T08:24:35;6.60;98.50
67901;DHT22;54700;51.796;10.956;2023-02-13T08:27:02;6.60;98.60
67901;DHT22;54700;51.796;10.956;2023-02-13T08:29:29;6.50;98.90
67901;DHT22;54700;51.796;10.956;2023-02-13T08:31:56;6.50;98.20
67901;DHT22;54700;51.796;10.956;2023-02-13T08:34:23;6.60;98.50
67901;DHT22;54700;51.796;10.956;2023-02-13T08:36:50;6.60;98.50
67901;DHT22;54700;51.796;10.956;2023-02-13T08:39:18;6.70;97.70
67901;DHT22;54700;51.796;10.956;2023-02-13T08:41:47;6.70;97.30
67901;DHT22;54700;51.796;10.956;2023-02-13T08:44:14;6.80;97.10
67901;DHT22;54700;51.796;10.956;2023-02-13T08:46:44;6.70;97.10
67901;DHT22;54700;51.796;10.956;2023-02-13T08:49:26;6.70;97.10
67901;DHT22;54700;51.796;10.956;2023-02-13T08:51:56;6.70;97.10
67901;DHT22;54700;51.796;10.956;2023-02-13T08:57:28;6.80;97.10
67901;DHT22;54700;51.796;10.956;2023-02-13T09:00:16;6.80;97.00
67901;DHT22;54700;51.796;10.956;2023-02-13T09:02:55;6.80;96.70
67901;DHT22;54700;51.796;10.956;2023-02-13T09:05:26;6.90;97.00
67901;DHT22;54700;51.796;10.956;2023-02-13T09:07:53;6.90;97.10
67901;DHT22;54700;51.796;10.956;2023-02-13T09:10:21;6.90;96.70
67901;DHT22;54700;51.796;10.956;2023-02-13T09:12:50;7.00;96.80
67901;DHT22;54700;51.796;10.956;2023-02-13T09:15:17;7.00;96.40
67901;DHT22;54700;51.796;10.956;2023-02-13T09:17:44;6.90;96.40
67901;DHT22;54700;51.796;10.956;2023-02-13T09:20:11;7.00;96.60
67901;DHT22;54700;51.796;10.956;2023-02-13T09:22:39;7.10;96.80
67901;DHT22;54700;51.796;10.956;2023-02-13T09:25:06;7.20;96.10
67901;DHT22;54700;51.796;10.956;2023-02-13T09:27:35;7.30;95.90
67901;DHT22;54700;51.796;10.956;2023-02-13T09:30:03;7.30;95.60
67901;DHT22;54700;51.796;10.956;2023-02-13T09:32:31;7.40;95.60
67901;DHT22;54700;51.796;10.956;2023-02-13T09:35:00;7.40;95.60
67901;DHT22;54700;51.796;10.956;2023-02-13T09:37:27;7.50;95.50
67901;DHT22;54700;51.796;10.956;2023-02-13T09:39:54;7.50;95.30
67901;DHT22;54700;51.796;10.956;2023-02-13T09:42:23;7.60;95.20
67901;DHT22;54700;51.796;10.956;2023-02-13T09:44:55;7.60;94.70
67901;DHT22;54700;51.796;10.956;2023-02-13T09:47:26;7.70;95.10
67901;DHT22;54700;51.796;10.956;2023-02-13T09:49:55;7.80;94.60
67901;DHT22;54700;51.796;10.956;2023-02-13T09:52:31;7.80;94.20
67901;DHT22;54700;51.796;10.956;2023-02-13T09:54:59;7.80;94.00
67901;DHT22;54700;51.796;10.956;2023-02-13T09:57:28;7.90;94.40
67901;DHT22;54700;51.796;10.956;2023-02-13T10:00:02;7.90;93.90
67901;DHT22;54700;51.796;10.956;2023-02-13T10:02:42;7.90;94.20
67901;DHT22;54700;51.796;10.956;2023-02-13T10:05:22;7.90;94.00
67901;DHT22;54700;51.796;10.956;2023-02-13T10:08:05;8.00;94.00
67901;DHT22;54700;51.796;10.956;2023-02-13T10:10:41;8.00;93.60
67901;DHT22;54700;51.796;10.956;2023-02-13T10:13:22;7.90;92.80
67901;DHT22;54700;51.796;10.956;2023-02-13T10:16:05;7.90;93.20
67901;DHT22;54700;51.796;10.956;2023-02-13T10:18:39;7.90;93.60
67901;DHT22;54700;51.796;10.956;2023-02-13T10:21:12;8.00;94.10
67901;DHT22;54700;51.796;10.956;2023-02-13T10:23:46;7.90;93.40
67901;DHT22;54700;51.796;10.956;2023-02-13T10:26:17;7.90;93.30
67901;DHT22;54700;51.796;10.956;2023-02-13T10:28:47;7.90;93.50
67901;DHT22;54700;51.796;10.956;2023-02-13T10:31:36;7.90;93.20
67901;DHT22;54700;51.796;10.956;2023-02-13T10:34:04;7.90;93.40
67901;DHT22;54700;51.796;10.956;2023-02-13T10:36:44;7.90;93.70
67901;DHT22;54700;51.796;10.956;2023-02-13T10:39:33;7.90;93.60
67901;DHT22;54700;51.796;10.956;2023-02-13T10:42:20;7.90;93.70
67901;DHT22;54700;51.796;10.956;2023-02-13T10:45:09;8.00;93.40
67901;DHT22;54700;51.796;10.956;2023-02-13T10:47:59;8.00;93.60
67901;DHT22;54700;51.796;10.956;2023-02-13T10:50:54;8.00;93.50
67901;DHT22;54700;51.796;10.956;2023-02-13T10:53:35;8.00;92.90
67901;DHT22;54700;51.796;10.956;2023-02-13T10:56:28;8.00;92.60
67901;DHT22;54700;51.796;10.956;2023-02-13T10:59:05;8.00;93.10
67901;DHT22;54700;51.796;10.956;2023-02-13T11:01:52;8.00;92.90
67901;DHT22;54700;51.796;10.956;2023-02-13T11:04:35;8.00;92.80
67901;DHT22;54700;51.796;10.956;2023-02-13T11:07:11;8.00;92.30
67901;DHT22;54700;51.796;10.956;2023-02-13T11:09:47;8.00;92.20
67901;DHT22;54700;51.796;10.956;2023-02-13T11:12:24;7.90;93.10
67901;DHT22;54700;51.796;10.956;2023-02-13T11:14:55;7.90;92.70
67901;DHT22;54700;51.796;10.956;2023-02-13T11:17:24;7.90;92.60
67901;DHT22;54700;51.796;10.956;2023-02-13T11:19:58;7.90;93.00
67901;DHT22;54700;51.796;10.956;2023-02-13T11:22:30;7.90;93.30
67901;DHT22;54700;51.796;10.956;2023-02-13T11:25:00;8.00;92.70
67901;DHT22;54700;51.796;10.956;2023-02-13T11:27:32;7.90;92.10
67901;DHT22;54700;51.796;10.956;2023-02-13T11:30:03;7.90;92.10
67901;DHT22;54700;51.796;10.956;2023-02-13T11:32:32;7.90;92.30
67901;DHT22;54700;51.796;10.956;2023-02-13T11:48:24;7.90;92.30
67901;DHT22;54700;51.796;10.956;2023-02-13T11:50:51;8.20;92.00
67901;DHT22;54700;51.796;10.956;2023-02-13T11:53:23;8.30;91.80
67901;DHT22;54700;51.796;10.956;2023-02-13T11:56:01;8.40;91.80
67901;DHT22;54700;51.796;10.956;2023-02-13T11:58:33;8.50;91.00
67901;DHT22;54700;51.796;10.956;2023-02-13T12:04:04;8.60;90.30
67901;DHT22;54700;51.796;10.956;2023-02-13T12:06:40;8.60;90.10
67901;DHT22;54700;51.796;10.956;2023-02-13T12:09:30;8.60;90.20
67901;DHT22;54700;51.796;10.956;2023-02-13T12:11:58;8.50;89.90
67901;DHT22;54700;51.796;10.956;2023-02-13T12:14:29;8.50;90.10
67901;DHT22;54700;51.796;10.956;2023-02-13T12:17:04;8.40;90.20
67901;DHT22;54700;51.796;10.956;2023-02-13T12:19:38;8.50;90.50
67901;DHT22;54700;51.796;10.956;2023-02-13T12:22:10;8.50;90.40
67901;DHT22;54700;51.796;10.956;2023-02-13T12:24:50;8.40;89.50
67901;DHT22;54700;51.796;10.956;2023-02-13T12:27:32;8.50;90.00
67901;DHT22;54700;51.796;10.956;2023-02-13T12:30:24;8.50;90.10
67901;DHT22;54700;51.796;10.956;2023-02-13T12:33:14;8.60;90.00
67901;DHT22;54700;51.796;10.956;2023-02-13T12:36:05;8.60;90.50
67901;DHT22;54700;51.796;10.956;2023-02-13T12:38:45;8.70;90.20
67901;DHT22;54700;51.796;10.956;2023-02-13T12:41:27;8.70;89.40
67901;DHT22;54700;51.796;10.956;2023-02-13T12:44:12;8.80;88.90
67901;DHT22;54700;51.796;10.956;2023-02-13T12:46:54;8.70;87.00
67901;DHT22;54700;51.796;10.956;2023-02-13T12:52:35;8.80;89.10
67901;DHT22;54700;51.796;10.956;2023-02-13T12:55:18;8.80;87.60
67901;DHT22;54700;51.796;10.956;2023-02-13T12:57:57;8.80;87.00
67901;DHT22;54700;51.796;10.956;2023-02-13T13:00:40;8.80;87.70
67901;DHT22;54700;51.796;10.956;2023-02-13T13:03:32;8.80;86.30
67901;DHT22;54700;51.796;10.956;2023-02-13T13:06:12;8.80;87.20
67901;DHT22;54700;51.796;10.956;2023-02-13T13:09:02;8.80;88.20
67901;DHT22;54700;51.796;10.956;2023-02-13T13:11:51;8.80;86.70
67901;DHT22;54700;51.796;10.956;2023-02-13T13:14:48;8.80;86.60
67901;DHT22;54700;51.796;10.956;2023-02-13T13:17:26;8.70;87.70
67901;DHT22;54700;51.796;10.956;2023-02-13T13:20:11;8.70;86.40
67901;DHT22;54700;51.796;10.956;2023-02-13T13:22:56;8.70;87.50
67901;DHT22;54700;51.796;10.956;2023-02-13T13:25:33;8.70;88.90
67901;DHT22;54700;51.796;10.956;2023-02-13T13:28:08;8.70;86.90
67901;DHT22;54700;51.796;10.956;2023-02-13T13:30:43;8.60;87.20
67901;DHT22;54700;51.796;10.956;2023-02-13T13:33:13;8.50;89.20
67901;DHT22;54700;51.796;10.956;2023-02-13T13:35:43;8.40;90.10
67901;DHT22;54700;51.796;10.956;2023-02-13T13:38:20;8.40;90.50
67901;DHT22;54700;51.796;10.956;2023-02-13T13:41:00;8.40;91.00
67901;DHT22;54700;51.796;10.956;2023-02-13T13:43:38;8.50;90.70
67901;DHT22;54700;51.796;10.956;2023-02-13T13:46:16;8.50;90.30
67901;DHT22;54700;51.796;10.956;2023-02-13T13:48:54;8.60;90.50
67901;DHT22;54700;51.796;10.956;2023-02-13T13:51:31;8.60;88.90
67901;DHT22;54700;51.796;10.956;2023-02-13T13:54:18;8.60;89.90
67901;DHT22;54700;51.796;10.956;2023-02-13T13:57:06;8.60;90.20
67901;DHT22;54700;51.796;10.956;2023-02-13T14:02:51;8.60;90.10
67901;DHT22;54700;51.796;10.956;2023-02-13T14:05:57;8.50;89.40
67901;DHT22;54700;51.796;10.956;2023-02-13T14:11:38;8.50;90.00
67901;DHT22;54700;51.796;10.956;2023-02-13T14:20:21;8.60;90.10
67901;DHT22;54700;51.796;10.956;2023-02-13T14:23:04;8.60;90.10
67901;DHT22;54700;51.796;10.956;2023-02-13T14:25:42;8.60;90.00
67901;DHT22;54700;51.796;10.956;2023-02-13T14:28:14;8.60;90.10
67901;DHT22;54700;51.796;10.956;2023-02-13T14:30:47;8.60;89.50
67901;DHT22;54700;51.796;10.956;2023-02-13T14:33:22;8.60;90.20
67901;DHT22;54700;51.796;10.956;2023-02-13T14:35:58;8.60;90.50
67901;DHT22;54700;51.796;10.956;2023-02-13T14:38:26;8.60;90.00
67901;DHT22;54700;51.796;10.956;2023-02-13T14:40:54;8.60;89.50
67901;DHT22;54700;51.796;10.956;2023-02-13T14:43:31;8.50;90.00
67901;DHT22;54700;51.796;10.956;2023-02-13T14:46:05;8.50;90.60
67901;DHT22;54700;51.796;10.956;2023-02-13T14:48:38;8.40;90.90
67901;DHT22;54700;51.796;10.956;2023-02-13T14:51:12;8.40;90.30
67901;DHT22;54700;51.796;10.956;2023-02-13T14:53:53;8.40;90.40
67901;DHT22;54700;51.796;10.956;2023-02-13T14:56:23;8.30;90.90
67901;DHT22;54700;51.796;10.956;2023-02-13T14:58:52;8.40;90.70
67901;DHT22;54700;51.796;10.956;2023-02-13T15:01:27;8.30;90.80
67901;DHT22;54700;51.796;10.956;2023-02-13T15:04:00;8.30;91.30
67901;DHT22;54700;51.796;10.956;2023-02-13T15:06:37;8.20;91.50
67901;DHT22;54700;51.796;10.956;2023-02-13T15:11:54;8.20;91.60
67901;DHT22;54700;51.796;10.956;2023-02-13T15:14:22;8.20;91.40
67901;DHT22;54700;51.796;10.956;2023-02-13T15:16:55;8.10;91.50
67901;DHT22;54700;51.796;10.956;2023-02-13T15:19:26;8.10;91.70
67901;DHT22;54700;51.796;10.956;2023-02-13T15:21:54;8.00;92.20
67901;DHT22;54700;51.796;10.956;2023-02-13T15:24:23;7.90;92.70
67901;DHT22;54700;51.796;10.956;2023-02-13T15:26:58;8.00;93.00
67901;DHT22;54700;51.796;10.956;2023-02-13T15:29:27;8.00;93.20
67901;DHT22;54700;51.796;10.956;2023-02-13T15:31:55;8.00;92.70
67901;DHT22;54700;51.796;10.956;2023-02-13T15:34:25;8.00;92.50
67901;DHT22;54700;51.796;10.956;2023-02-13T15:36:56;8.00;92.80
67901;DHT22;54700;51.796;10.956;2023-02-13T15:39:24;8.00;93.10
67901;DHT22;54700;51.796;10.956;2023-02-13T15:41:53;8.00;93.50
67901;DHT22;54700;51.796;10.956;2023-02-13T15:44:23;8.00;93.40
67901;DHT22;54700;51.796;10.956;2023-02-13T15:46:53;8.00;93.40
67901;DHT22;54700;51.796;10.956;2023-02-13T15:49:28;8.00;93.50
67901;DHT22;54700;51.796;10.956;2023-02-13T15:52:03;8.00;93.60
67901;DHT22;54700;51.796;10.956;2023-02-13T15:54:33;8.00;93.90
67901;DHT22;54700;51.796;10.956;2023-02-13T15:57:01;7.90;93.90
67901;DHT22;54700;51.796;10.956;2023-02-13T15:59:33;8.00;93.90
67901;DHT22;54700;51.796;10.956;2023-02-13T16:02:02;7.90;93.80
67901;DHT22;54700;51.796;10.956;2023-02-13T16:04:32;7.90;93.70
67901;DHT22;54700;51.796;10.956;2023-02-13T16:07:00;7.80;93.80
67901;DHT22;54700;51.796;10.956;2023-02-13T16:09:29;7.80;94.10
67901;DHT22;54700;51.796;10.956;2023-02-13T16:12:04;7.70;94.30
67901;DHT22;54700;51.796;10.956;2023-02-13T16:14:33;7.70;94.60
67901;DHT22;54700;51.796;10.956;2023-02-13T16:17:03;7.70;95.00
67901;DHT22;54700;51.796;10.956;2023-02-13T16:19:34;7.70;95.20
67901;DHT22;54700;51.796;10.956;2023-02-13T16:22:13;7.70;95.40
67901;DHT22;54700;51.796;10.956;2023-02-13T16:24:46;7.70;95.20
67901;DHT22;54700;51.796;10.956;2023-02-13T16:27:16;7.60;95.10
67901;DHT22;54700;51.796;10.956;2023-02-13T16:29:48;7.60;95.20
67901;DHT22;54700;51.796;10.956;2023-02-13T16:32:21;7.60;95.10
67901;DHT22;54700;51.796;10.956;2023-02-13T16:34:53;7.60;95.30
67901;DHT22;54700;51.796;10.956;2023-02-13T16:37:28;7.50;95.40
67901;DHT22;54700;51.796;10.956;2023-02-13T16:39:56;7.50;95.60
67901;DHT22;54700;51.796;10.956;2023-02-13T16:42:41;7.50;95.70
67901;DHT22;54700;51.796;10.956;2023-02-13T16:45:20;7.50;95.60
67901;DHT22;54700;51.796;10.956;2023-02-13T16:47:57;7.50;95.60